Time;durP1;ratioP1;P1;durP2;ratioP2;P2;SDS_P1;SDS_P2;PMS_P1;PMS_P2;Temp;Humidity;BMP_temperature;BMP_pressure;BME280_temperature;BME280_humidity;BME280_pressure;Samples;Min_cycle;Max_cycle;Signal;HPM_P1;HPM_P2
2023/06/17 00:04:44;;;;;;;5.78;3.90;;;;;;;20.14;47.36;99098.72;7268074;40;20264;31
2023/06/17 00:10:19;;;;;;;6.62;4.57;;;;;;;19.66;48.67;99091.28;7258716;40;20374;31
2023/06/17 00:15:56;;;;;;;5.57;4.50;;;;;;;19.39;47.74;99098.09;7067461;40;20303;31
2023/06/17 00:21:28;;;;;;;5.65;4.80;;;;;;;19.31;49.27;99093.72;7237511;40;20372;31
2023/06/17 00:27:03;;;;;;;6.40;4.43;;;;;;;19.16;48.99;99082.31;7208428;40;20266;31
2023/06/17 00:32:41;;;;;;;5.87;4.57;;;;;;;19.03;49.62;99084.34;7199921;40;20243;31
2023/06/17 00:38:15;;;;;;;5.43;4.17;;;;;;;18.94;49.36;99089.25;7195926;40;20281;31
2023/06/17 00:43:35;;;;;;;6.20;4.25;;;;;;;18.88;49.20;99080.03;7199961;40;20278;31
2023/06/17 00:54:15;;;;;;;5.73;4.00;;;;;;;18.81;50.87;99068.34;7224666;40;20273;31
2023/06/17 00:59:51;;;;;;;6.47;4.30;;;;;;;18.71;50.90;99073.47;7258294;40;20319;31
2023/06/17 01:05:25;;;;;;;5.78;4.60;;;;;;;18.46;51.14;99067.09;7218244;40;20253;31
2023/06/17 01:11:03;;;;;;;8.05;4.40;;;;;;;18.27;52.58;99065.31;7221585;40;20347;31
2023/06/17 01:16:41;;;;;;;7.93;4.23;;;;;;;18.25;52.19;99060.12;7223096;40;20339;31
2023/06/17 01:22:13;;;;;;;5.07;4.10;;;;;;;18.17;52.35;99064.97;7210131;40;20270;31
2023/06/17 01:27:54;;;;;;;5.20;4.20;;;;;;;18.08;53.05;99056.19;7228105;40;20275;31
2023/06/17 01:33:24;;;;;;;8.23;4.15;;;;;;;18.04;53.11;99057.69;7279465;39;20263;31
2023/06/17 01:38:59;;;;;;;5.63;4.07;;;;;;;17.92;52.84;99053.97;7262539;40;20459;31
2023/06/17 01:44:35;;;;;;;7.60;4.40;;;;;;;17.95;52.47;99057.09;7201114;40;20269;31
2023/06/17 01:50:08;;;;;;;6.97;4.50;;;;;;;17.96;52.08;99058.78;7220529;40;20277;31
2023/06/17 01:55:29;;;;;;;4.90;4.40;;;;;;;18.39;50.72;99060.84;7201045;40;20266;31
2023/06/17 02:07:01;;;;;;;5.00;4.10;;;;;;;18.78;50.36;99063.31;7258364;40;21214;31
2023/06/17 02:17:42;;;;;;;7.10;4.60;;;;;;;18.71;49.97;99057.06;7297720;39;20413;31
2023/06/17 02:28:17;;;;;;;5.90;4.40;;;;;;;18.70;50.56;99055.37;7267663;39;20299;31
2023/06/17 02:33:51;;;;;;;5.23;4.60;;;;;;;18.18;51.58;99053.00;7279521;40;20353;31
2023/06/17 02:39:27;;;;;;;7.00;4.70;;;;;;;17.70;52.49;99047.16;7283118;40;20241;31
2023/06/17 02:45:03;;;;;;;6.20;4.70;;;;;;;17.46;53.42;99048.69;7257330;40;20260;31
2023/06/17 02:50:39;;;;;;;7.70;5.07;;;;;;;17.31;54.14;99043.47;7238821;40;20392;31
2023/06/17 02:56:14;;;;;;;6.40;4.50;;;;;;;17.40;53.16;99044.09;7219324;40;20238;31
2023/06/17 03:01:50;;;;;;;6.70;4.70;;;;;;;17.38;53.89;99048.91;7248711;40;20241;31
2023/06/17 03:07:25;;;;;;;4.70;4.20;;;;;;;17.21;54.50;99053.97;7239599;40;20245;31
2023/06/17 03:12:45;;;;;;;4.30;3.90;;;;;;;17.07;54.52;99066.78;7236529;40;20253;31
2023/06/17 03:18:21;;;;;;;7.27;4.73;;;;;;;17.07;54.47;99052.31;7205433;40;20519;31
2023/06/17 03:23:42;;;;;;;6.60;4.70;;;;;;;17.24;53.57;99056.28;7218597;40;20406;31
2023/06/17 03:29:16;;;;;;;4.93;4.43;;;;;;;17.35;53.31;99055.63;7242973;40;20239;31
2023/06/17 03:34:53;;;;;;;6.23;4.77;;;;;;;17.54;53.19;99059.34;7241975;40;20245;31
2023/06/17 03:40:28;;;;;;;4.86;4.22;;;;;;;17.62;52.91;99067.31;7203301;40;21316;31
2023/06/17 03:45:48;;;;;;;9.30;4.90;;;;;;;17.28;54.63;99062.16;7158915;40;20252;31
2023/06/17 03:51:25;;;;;;;6.20;4.55;;;;;;;17.07;54.65;99047.72;7138184;40;20358;31
2023/06/17 04:01:50;;;;;;;7.20;4.60;;;;;;;17.04;54.02;99061.75;7231265;40;20258;31
2023/06/17 04:07:27;;;;;;;5.20;4.30;;;;;;;16.95;54.43;99056.75;7260785;39;20273;31
2023/06/17 04:12:47;;;;;;;4.75;4.25;;;;;;;17.07;54.40;99061.31;7227348;40;20293;31
2023/06/17 04:18:24;;;;;;;5.85;5.05;;;;;;;17.08;54.48;99049.41;7199066;40;20254;31
2023/06/17 04:23:59;;;;;;;5.43;4.63;;;;;;;17.03;54.80;99062.81;7227516;40;20348;31
2023/06/17 04:29:34;;;;;;;5.00;4.50;;;;;;;17.20;55.76;99057.75;7198637;40;20257;31
2023/06/17 04:34:54;;;;;;;6.70;4.27;;;;;;;17.48;54.26;99062.94;7240852;40;20257;31
2023/06/17 04:40:31;;;;;;;13.15;4.95;;;;;;;17.50;55.30;99060.84;7268125;40;20312;31
2023/06/17 04:46:05;;;;;;;5.60;4.80;;;;;;;17.47;54.50;99061.25;7283608;39;20258;31
2023/06/17 04:51:40;;;;;;;6.95;4.90;;;;;;;17.64;55.20;99064.41;7250242;40;20242;31
2023/06/17 04:57:16;;;;;;;7.90;4.70;;;;;;;17.73;55.25;99066.62;7248117;40;20335;31
2023/06/17 05:02:51;;;;;;;6.00;4.80;;;;;;;17.91;54.66;99064.03;7213108;40;20328;31
2023/06/17 05:08:26;;;;;;;5.65;4.90;;;;;;;18.08;55.31;99069.84;7183746;40;20284;31
2023/06/17 05:14:02;;;;;;;5.33;4.23;;;;;;;18.34;54.41;99071.59;7225892;40;20317;31
2023/06/17 05:19:22;;;;;;;5.42;4.82;;;;;;;18.59;53.90;99077.97;7238203;40;20242;31
2023/06/17 05:24:58;;;;;;;6.33;5.07;;;;;;;18.82;53.11;99083.66;7269416;40;20237;31
2023/06/17 05:30:32;;;;;;;7.40;4.70;;;;;;;18.95;53.56;99073.69;7247711;40;20253;31
2023/06/17 05:35:52;;;;;;;5.77;4.63;;;;;;;19.14;52.90;99078.97;7254881;40;20315;31
2023/06/17 05:41:13;;;;;;;5.90;4.60;;;;;;;19.45;53.49;99069.00;7254822;40;20246;31
2023/06/17 05:46:49;;;;;;;5.90;4.43;;;;;;;19.68;51.97;99077.38;7238617;40;20339;31
2023/06/17 05:52:24;;;;;;;6.32;4.80;;;;;;;19.89;52.28;99087.84;7217400;40;20308;31
2023/06/17 05:57:44;;;;;;;5.58;4.82;;;;;;;20.09;50.95;99082.16;7250135;40;20353;31
2023/06/17 06:03:21;;;;;;;7.20;5.40;;;;;;;20.29;51.29;99082.69;7278183;39;20252;31
2023/06/17 06:08:41;;;;;;;7.60;4.90;;;;;;;20.56;50.65;99081.28;7298421;40;20277;31
2023/06/17 06:14:03;;;;;;;5.83;5.03;;;;;;;20.77;50.90;99084.53;7283823;40;20334;31
2023/06/17 06:19:38;;;;;;;6.15;5.35;;;;;;;20.94;49.73;99080.03;7270062;40;20261;31
2023/06/17 06:24:59;;;;;;;7.70;4.97;;;;;;;21.15;48.65;99090.47;7254601;40;20373;31
2023/06/17 06:30:31;;;;;;;6.47;5.18;;;;;;;21.37;48.58;99091.53;7278209;40;20255;31
2023/06/17 06:36:07;;;;;;;5.50;5.00;;;;;;;21.62;47.43;99088.56;7241251;40;20311;31
2023/06/17 06:41:42;;;;;;;9.13;5.30;;;;;;;21.88;47.41;99096.25;7239720;40;20242;31
2023/06/17 06:47:03;;;;;;;7.65;5.70;;;;;;;22.08;47.20;99097.78;7226341;40;20359;31
2023/06/17 06:52:36;;;;;;;10.52;5.87;;;;;;;22.28;45.70;99104.53;7030024;40;21334;31
2023/06/17 07:03:02;;;;;;;7.60;5.78;;;;;;;22.69;45.88;99117.16;7269036;40;20291;31
2023/06/17 07:08:35;;;;;;;6.73;5.23;;;;;;;22.91;45.65;99096.09;7255964;40;20269;31
2023/06/17 07:19:01;;;;;;;9.80;5.30;;;;;;;23.21;44.97;99115.03;7257063;40;20377;31
2023/06/17 07:29:39;;;;;;;9.25;5.68;;;;;;;23.59;44.11;99118.97;7302814;39;21112;31
2023/06/17 07:40:06;;;;;;;7.25;5.70;;;;;;;23.96;43.45;99120.03;7287532;39;21142;31
2023/06/17 07:45:41;;;;;;;7.35;5.55;;;;;;;24.17;43.44;99113.75;7279661;40;20241;31
2023/06/17 07:51:16;;;;;;;8.05;5.50;;;;;;;24.42;42.34;99123.38;7285577;40;20277;31
2023/06/17 07:56:37;;;;;;;8.05;4.97;;;;;;;24.63;43.38;99111.50;7241521;40;20246;31
2023/06/17 08:02:12;;;;;;;9.82;5.22;;;;;;;24.83;41.64;99100.69;7254292;40;20485;31
2023/06/17 08:07:47;;;;;;;6.35;5.10;;;;;;;25.00;41.95;99103.34;7174165;40;20277;31
2023/06/17 08:13:08;;;;;;;6.57;5.20;;;;;;;25.23;41.04;99096.63;7172478;40;20490;31
2023/06/17 08:18:44;;;;;;;11.08;5.80;;;;;;;25.44;40.38;99092.94;7205813;40;20269;31
2023/06/17 08:24:30;;;;;;;6.02;5.12;;;;;;;25.69;40.59;99092.28;7284069;39;20272;31
2023/06/17 08:30:04;;;;;;;7.87;4.60;;;;;;;25.86;38.89;99088.22;7241661;40;20245;31
2023/06/17 08:35:40;;;;;;;4.82;4.30;;;;;;;26.09;39.57;99091.66;7232243;40;20420;31
2023/06/17 08:41:15;;;;;;;6.22;4.40;;;;;;;26.28;38.49;99088.19;7220555;40;20256;31
2023/06/17 08:46:51;;;;;;;5.35;4.80;;;;;;;26.45;38.46;99080.50;7207461;40;20314;31
2023/06/17 08:52:28;;;;;;;7.00;4.70;;;;;;;26.48;38.08;99076.34;7230585;40;21143;31
2023/06/17 08:58:02;;;;;;;5.30;4.70;;;;;;;26.61;37.50;99077.75;7291097;39;20234;31
2023/06/17 09:03:38;;;;;;;7.85;4.65;;;;;;;26.78;37.67;99072.78;7283573;39;20245;31
2023/06/17 09:09:15;;;;;;;7.18;4.90;;;;;;;27.00;36.81;99075.31;7326671;39;20448;31
2023/06/17 09:14:50;;;;;;;7.10;4.45;;;;;;;27.22;36.79;99070.34;7266142;39;20266;31
2023/06/17 09:20:25;;;;;;;6.10;4.50;;;;;;;27.36;35.88;99068.66;7281865;40;20248;31
2023/06/17 09:26:01;;;;;;;6.65;4.25;;;;;;;27.33;35.66;99066.47;7320226;39;20433;31
2023/06/17 09:31:19;;;;;;;5.93;4.50;;;;;;;27.56;35.45;99071.44;7307751;39;20440;31
2023/06/17 09:36:52;;;;;;;5.95;4.05;;;;;;;27.47;34.26;99059.22;7297854;39;20272;31
2023/06/17 09:42:30;;;;;;;4.75;4.25;;;;;;;27.48;33.39;99051.78;7301500;39;20264;31
2023/06/17 09:48:05;;;;;;;5.30;4.80;;;;;;;27.64;34.06;99036.81;7318165;39;20296;31
2023/06/17 09:53:41;;;;;;;8.20;4.70;;;;;;;27.84;33.31;99041.44;7209953;40;20262;31
2023/06/17 09:59:18;;;;;;;5.68;4.55;;;;;;;28.07;33.03;99040.78;7247965;39;20420;31
2023/06/17 10:04:52;;;;;;;5.62;4.43;;;;;;;28.15;32.33;99035.50;7256533;39;20347;31
2023/06/17 10:10:26;;;;;;;7.20;4.76;;;;;;;28.12;32.49;99026.94;7258029;39;20253;31
2023/06/17 10:16:02;;;;;;;8.00;4.37;;;;;;;28.58;32.40;99021.94;7275065;40;20311;31
2023/06/17 10:21:38;;;;;;;7.20;4.62;;;;;;;28.78;32.15;99021.00;7256390;40;20246;31
2023/06/17 10:27:12;;;;;;;7.15;4.30;;;;;;;28.86;31.43;99020.38;7262415;40;20256;31
2023/06/17 10:32:48;;;;;;;10.20;4.50;;;;;;;28.91;31.00;99023.94;7241580;40;20343;31
2023/06/17 10:38:23;;;;;;;7.34;4.34;;;;;;;29.26;30.48;99016.41;7247711;40;20265;31
2023/06/17 10:43:43;;;;;;;5.55;4.57;;;;;;;28.66;31.38;99022.12;7179949;40;20276;31
2023/06/17 10:49:20;;;;;;;7.12;4.56;;;;;;;28.17;32.28;99029.69;7146257;40;20304;31
2023/06/17 10:54:56;;;;;;;5.60;4.70;;;;;;;28.00;32.45;99027.22;7187578;40;20322;31
2023/06/17 11:00:17;;;;;;;5.88;4.46;;;;;;;28.64;31.38;99018.00;7241853;40;20438;31
2023/06/17 11:05:53;;;;;;;5.60;4.55;;;;;;;29.03;30.66;99012.44;7279848;39;20252;31
2023/06/17 11:11:28;;;;;;;5.68;4.32;;;;;;;29.29;30.45;99005.56;7301349;39;20252;31
2023/06/17 11:17:04;;;;;;;5.32;4.34;;;;;;;29.38;30.60;99003.81;7271685;40;20355;31
2023/06/17 11:22:39;;;;;;;4.76;4.28;;;;;;;29.44;29.90;99005.38;7263608;40;20265;31
2023/06/17 11:27:59;;;;;;;5.15;4.10;;;;;;;29.71;29.18;98998.41;7200418;40;20398;31
2023/06/17 11:33:36;;;;;;;4.95;4.20;;;;;;;29.74;28.30;98995.87;7190004;40;20270;31
2023/06/17 11:39:11;;;;;;;5.68;4.46;;;;;;;29.74;29.67;98992.28;7224752;40;20245;31
2023/06/17 11:44:46;;;;;;;5.50;4.28;;;;;;;29.26;27.51;98985.84;7204083;40;20324;31
2023/06/17 11:50:21;;;;;;;5.03;4.50;;;;;;;28.56;29.54;98975.09;7227137;40;21075;31
2023/06/17 12:01:03;;;;;;;5.50;4.90;;;;;;;28.44;30.68;98974.59;7246838;40;20456;31
2023/06/17 12:06:37;;;;;;;7.35;4.10;;;;;;;28.34;30.48;98974.69;7235222;40;20307;31
2023/06/17 12:17:19;;;;;;;6.00;3.80;;;;;;;29.24;29.78;98969.47;7299708;39;20280;31
2023/06/17 12:22:52;;;;;;;4.70;4.30;;;;;;;28.89;29.70;98967.06;7235686;40;20419;31
2023/06/17 12:28:18;;;;;;;5.37;4.40;;;;;;;29.34;28.46;98958.28;7217748;40;20658;31
2023/06/17 12:33:52;;;;;;;4.28;3.87;;;;;;;29.65;27.54;98944.88;7237608;40;20237;31
2023/06/17 12:39:13;;;;;;;5.47;4.30;;;;;;;29.92;28.29;98945.09;7267391;39;20256;31
2023/06/17 12:44:48;;;;;;;5.15;4.37;;;;;;;30.23;27.30;98939.09;7307485;39;20338;31
2023/06/17 12:50:24;;;;;;;6.80;4.20;;;;;;;29.88;26.68;98926.53;7315776;39;20272;31
2023/06/17 12:55:59;;;;;;;5.37;4.18;;;;;;;29.46;28.38;98921.75;7262466;40;20323;31
2023/06/17 13:01:20;;;;;;;6.20;4.40;;;;;;;29.14;26.83;98922.38;7269988;39;20267;31
2023/06/17 13:06:56;;;;;;;6.78;4.47;;;;;;;28.93;28.44;98912.63;7285789;39;20252;31
2023/06/17 13:12:16;;;;;;;5.25;4.20;;;;;;;29.55;27.60;98901.38;7218759;40;20250;31
2023/06/17 13:17:52;;;;;;;8.10;4.40;;;;;;;29.79;27.11;98895.78;7243160;40;20246;31
2023/06/17 13:23:28;;;;;;;6.70;4.50;;;;;;;29.94;27.71;98894.75;7217079;40;20828;31
2023/06/17 13:29:01;;;;;;;6.27;4.00;;;;;;;29.53;27.49;98900.81;7066034;39;21299;31
2023/06/17 13:34:32;;;;;;;8.26;4.44;;;;;;;29.36;28.19;98894.94;7205133;40;20443;31
2023/06/17 13:40:08;;;;;;;5.40;4.10;;;;;;;29.24;28.33;98890.91;7255899;40;20443;31
2023/06/17 13:45:43;;;;;;;4.90;4.45;;;;;;;29.26;28.79;98897.00;7259514;40;20266;31
2023/06/17 13:51:19;;;;;;;5.50;3.83;;;;;;;29.40;27.94;98896.00;7267612;40;20575;31
2023/06/17 13:56:55;;;;;;;5.74;4.16;;;;;;;29.62;28.31;98884.31;7271080;40;20261;31
2023/06/17 14:02:30;;;;;;;5.50;4.10;;;;;;;29.64;28.32;98892.38;7227733;40;20261;31
2023/06/17 14:08:06;;;;;;;7.12;4.35;;;;;;;29.45;28.79;98893.16;7208059;40;20254;31
2023/06/17 14:13:41;;;;;;;6.12;4.55;;;;;;;29.63;28.31;98885.16;7195321;40;21219;31
2023/06/17 14:19:16;;;;;;;4.47;4.07;;;;;;;29.68;28.55;98882.31;7221325;40;20281;31
2023/06/17 14:24:51;;;;;;;5.18;4.12;;;;;;;29.63;26.93;98874.03;7254082;39;20403;31
2023/06/17 14:30:25;;;;;;;6.36;4.32;;;;;;;29.74;26.47;98870.00;7215366;40;20389;31
2023/06/17 14:36:04;;;;;;;5.93;4.40;;;;;;;29.69;26.00;98850.63;7266407;39;20297;31
2023/06/17 14:41:27;;;;;;;5.20;4.20;;;;;;;29.67;26.70;98850.06;7255682;40;20250;31
2023/06/17 14:47:02;;;;;;;5.35;4.70;;;;;;;29.57;26.19;98847.47;7249382;40;20331;31
2023/06/17 14:52:38;;;;;;;4.80;4.30;;;;;;;29.38;26.22;98856.59;7262773;40;20310;31
2023/06/17 14:57:59;;;;;;;6.07;5.37;;;;;;;29.76;26.85;98851.06;7266854;40;20253;31
2023/06/17 15:03:35;;;;;;;22.42;16.76;;;;;;;30.03;26.00;98840.13;7233539;40;20367;31
2023/06/17 15:09:22;;;;;;;8.43;7.05;;;;;;;30.21;26.61;98847.59;7253396;39;20259;31
2023/06/17 15:14:51;;;;;;;6.40;5.65;;;;;;;29.94;25.45;98836.38;7194068;40;20269;31
2023/06/17 15:20:24;;;;;;;5.70;4.75;;;;;;;29.98;24.68;98821.56;7212241;40;20254;31
2023/06/17 15:25:58;;;;;;;5.30;4.80;;;;;;;30.18;24.20;98820.41;7299944;40;20445;31
2023/06/17 15:31:19;;;;;;;6.75;4.70;;;;;;;30.29;24.61;98826.63;7227208;40;20339;31
2023/06/17 15:36:56;;;;;;;6.75;4.50;;;;;;;30.41;24.98;98824.16;7266721;40;20462;31
2023/06/17 15:42:16;;;;;;;7.10;5.00;;;;;;;30.26;24.53;98832.78;7245815;40;20448;31
2023/06/17 15:47:51;;;;;;;6.90;5.25;;;;;;;30.41;24.15;98827.78;7215553;40;20361;31
2023/06/17 15:58:38;;;;;;;;;;;;;;;;;;;;;
2023/06/17 16:04:08;;;;;;;5.97;5.00;;;;;;;30.22;25.27;98827.03;7240193;40;20249;31
2023/06/17 16:09:21;;;;;;;4.85;4.35;;;;;;;30.34;24.87;98829.31;7295091;39;20271;31
2023/06/17 16:14:57;;;;;;;5.43;4.80;;;;;;;30.34;24.96;98830.13;7335550;39;20435;31
2023/06/17 16:20:17;;;;;;;5.35;4.85;;;;;;;30.23;23.94;98834.25;7256196;40;20264;31
2023/06/17 16:25:38;;;;;;;5.10;4.60;;;;;;;30.14;23.84;98827.72;7280681;39;20257;31
2023/06/17 16:31:12;;;;;;;5.20;4.70;;;;;;;30.12;25.00;98818.84;7239559;40;20249;31
2023/06/17 16:36:47;;;;;;;7.74;4.96;;;;;;;30.14;24.32;98819.37;7302009;39;20256;31
2023/06/17 16:42:08;;;;;;;7.20;4.72;;;;;;;30.10;25.52;98815.56;7251087;39;20237;31
2023/06/17 16:47:44;;;;;;;5.22;4.43;;;;;;;30.07;25.04;98818.91;7304655;39;20368;31
2023/06/17 16:58:08;;;;;;;5.60;4.80;;;;;;;30.00;26.14;98818.50;7256984;40;20636;31
2023/06/17 17:08:48;;;;;;;8.02;4.97;;;;;;;29.82;27.20;98822.06;7343517;39;20282;31
2023/06/17 17:14:08;;;;;;;6.18;5.00;;;;;;;29.82;26.22;98822.06;7260999;40;20265;31
2023/06/17 17:19:44;;;;;;;5.80;5.00;;;;;;;29.65;25.98;98822.59;7314359;39;20251;31
2023/06/17 17:25:21;;;;;;;5.50;4.82;;;;;;;29.57;26.62;98825.25;7257358;40;20435;31
2023/06/17 17:30:41;;;;;;;6.30;4.82;;;;;;;29.55;27.85;98829.13;7261233;40;20496;31
2023/06/17 17:36:02;;;;;;;6.75;4.80;;;;;;;29.41;27.89;98822.66;7278820;40;20271;31
2023/06/17 17:41:39;;;;;;;6.78;4.68;;;;;;;29.29;28.11;98821.41;7227130;40;20257;31
2023/06/17 17:46:59;;;;;;;8.90;5.30;;;;;;;29.24;27.98;98832.59;7179501;40;20246;31
2023/06/17 17:52:17;;;;;;;7.45;4.62;;;;;;;29.12;29.04;98830.25;7206971;40;20253;31
2023/06/17 17:57:53;;;;;;;7.30;5.00;;;;;;;28.98;29.51;98826.53;7236487;40;20242;31
2023/06/17 18:08:17;;;;;;;6.00;5.40;;;;;;;28.66;31.01;98832.66;7245921;40;20265;31
2023/06/17 18:18:58;;;;;;;6.82;5.28;;;;;;;28.31;31.71;98833.00;7272693;39;21014;31
2023/06/17 18:24:35;;;;;;;9.25;5.60;;;;;;;28.23;32.30;98843.63;7301617;40;20248;31
2023/06/17 18:29:55;;;;;;;6.00;5.03;;;;;;;28.09;32.99;98838.97;7240132;40;20432;31
2023/06/17 18:35:33;;;;;;;5.70;5.20;;;;;;;27.88;34.40;98837.47;7240000;40;20257;31
2023/06/17 18:40:53;;;;;;;5.64;5.12;;;;;;;27.58;34.19;98839.34;7226440;40;20344;31
2023/06/17 18:46:10;;;;;;;5.64;5.14;;;;;;;27.40;34.62;98845.50;7255002;40;20403;31
2023/06/17 18:51:48;;;;;;;5.62;5.10;;;;;;;27.09;35.72;98849.50;7275883;40;20261;31
2023/06/17 18:57:08;;;;;;;6.15;4.97;;;;;;;26.85;35.77;98854.88;7298844;39;20275;31
2023/06/17 19:02:31;;;;;;;7.67;5.20;;;;;;;26.69;35.91;98850.41;7250031;40;20356;31
2023/06/17 19:08:04;;;;;;;6.65;5.15;;;;;;;26.39;36.67;98870.66;7245538;40;20268;31
2023/06/17 19:13:40;;;;;;;9.00;5.57;;;;;;;26.12;38.00;98867.28;7225922;40;20246;31
2023/06/17 19:18:59;;;;;;;7.47;5.30;;;;;;;25.82;37.69;98866.16;7228302;40;20256;31
2023/06/17 19:24:35;;;;;;;10.40;6.05;;;;;;;25.62;38.48;98868.91;7244028;40;20236;31
2023/06/17 19:30:11;;;;;;;5.50;4.98;;;;;;;25.41;38.43;98873.47;7220032;40;20511;31
2023/06/17 19:35:31;;;;;;;6.53;5.28;;;;;;;25.12;39.62;98875.84;7195906;40;20312;31
2023/06/17 19:41:07;;;;;;;7.00;4.90;;;;;;;24.87;39.70;98872.97;7221324;40;20328;31
2023/06/17 19:46:42;;;;;;;6.25;5.40;;;;;;;24.63;39.86;98875.25;7208539;40;20444;31
2023/06/17 19:52:18;;;;;;;7.55;5.50;;;;;;;24.04;39.78;98881.94;7208272;40;20421;31
2023/06/17 19:57:54;;;;;;;6.20;5.60;;;;;;;23.80;39.60;98881.41;7228945;40;20261;31
2023/06/17 20:03:15;;;;;;;6.30;5.70;;;;;;;23.76;40.62;98880.25;7248487;40;20556;31
2023/06/17 20:08:33;;;;;;;7.28;5.53;;;;;;;23.65;39.66;98893.06;7124758;39;20244;31
2023/06/17 20:14:09;;;;;;;7.10;5.45;;;;;;;23.40;40.77;98886.41;7325627;39;20255;31
2023/06/17 20:19:44;;;;;;;8.36;6.46;;;;;;;23.44;39.75;98896.69;7295156;39;20264;31
2023/06/17 20:25:19;;;;;;;8.75;5.80;;;;;;;23.39;39.20;98895.78;7288531;40;20297;31
2023/06/17 20:30:53;;;;;;;6.70;5.25;;;;;;;23.39;40.06;98895.78;7256373;40;20447;31
2023/06/17 20:36:29;;;;;;;8.17;5.60;;;;;;;23.34;39.51;98899.31;7216868;40;20433;31
2023/06/17 20:42:01;;;;;;;6.60;5.50;;;;;;;23.26;39.10;98894.22;7196159;40;20258;31
2023/06/17 20:47:37;;;;;;;6.85;5.90;;;;;;;23.19;39.62;98891.69;7149649;40;20262;31
2023/06/17 20:53:13;;;;;;;9.12;5.54;;;;;;;23.04;40.52;98902.47;7129093;40;20247;31
2023/06/17 20:58:47;;;;;;;6.40;5.20;;;;;;;22.56;40.74;98902.28;7185978;40;20254;31
2023/06/17 21:04:21;;;;;;;7.10;5.70;;;;;;;22.37;41.04;98904.47;7191918;40;20250;31
2023/06/17 21:09:42;;;;;;;6.35;5.45;;;;;;;22.38;40.43;98906.94;7228578;40;20319;31
2023/06/17 21:15:18;;;;;;;6.37;5.20;;;;;;;22.36;40.42;98902.81;7256480;40;20394;31
2023/06/17 21:25:56;;;;;;;5.80;5.20;;;;;;;22.31;40.77;98900.81;7277987;40;20284;31
2023/06/17 21:31:17;;;;;;;7.65;5.10;;;;;;;22.33;40.60;98909.66;7244663;40;20316;31
2023/06/17 21:36:50;;;;;;;6.25;5.00;;;;;;;22.12;40.09;98907.59;7250593;39;20265;31
2023/06/17 21:42:26;;;;;;;6.15;5.30;;;;;;;22.05;40.70;98895.13;7225438;40;20331;31
2023/06/17 21:47:46;;;;;;;5.53;4.97;;;;;;;22.07;40.38;98899.31;7222063;40;20273;31
2023/06/17 21:53:21;;;;;;;7.12;5.20;;;;;;;22.05;40.74;98886.91;7182886;40;20254;31
2023/06/17 21:58:57;;;;;;;5.50;4.85;;;;;;;21.89;40.89;98883.88;7257956;39;20257;31
2023/06/17 22:04:18;;;;;;;6.20;5.15;;;;;;;21.71;41.83;98881.34;7285531;39;20383;31
2023/06/17 22:09:54;;;;;;;8.68;5.30;;;;;;;21.43;41.94;98882.16;7291327;40;20248;31
2023/06/17 22:15:28;;;;;;;7.30;4.60;;;;;;;21.15;43.13;98879.38;7253166;40;20269;31
2023/06/17 22:21:03;;;;;;;6.50;5.25;;;;;;;20.92;43.81;98884.91;7252609;40;20365;31
2023/06/17 22:26:23;;;;;;;7.00;4.90;;;;;;;21.18;42.58;98876.19;7239856;40;20350;31
2023/06/17 22:31:59;;;;;;;7.72;4.90;;;;;;;21.36;42.03;98877.91;7307262;39;20271;31
2023/06/17 22:37:17;;;;;;;7.78;5.18;;;;;;;21.13;43.79;98884.28;7271128;40;20311;31
2023/06/17 22:42:35;;;;;;;10.82;5.35;;;;;;;21.10;43.24;98890.22;7256583;40;20276;31
2023/06/17 22:48:12;;;;;;;6.43;5.45;;;;;;;20.86;44.53;98886.69;7272807;40;20245;31
2023/06/17 22:53:48;;;;;;;7.60;5.20;;;;;;;20.30;45.60;98892.78;7219030;40;20238;31
2023/06/17 22:59:22;;;;;;;8.55;5.95;;;;;;;20.02;45.77;98889.84;7221321;40;20272;31
2023/06/17 23:04:58;;;;;;;9.15;5.45;;;;;;;20.04;45.50;98893.19;7255420;40;20266;31
2023/06/17 23:10:35;;;;;;;7.53;5.78;;;;;;;20.07;45.52;98881.75;7229150;40;20274;31
2023/06/17 23:16:08;;;;;;;6.75;5.30;;;;;;;20.20;46.21;98885.12;7273198;39;20237;31
2023/06/17 23:21:44;;;;;;;6.57;5.87;;;;;;;20.17;45.44;98887.50;7227345;40;20242;31
2023/06/17 23:27:17;;;;;;;7.50;5.83;;;;;;;20.05;46.42;98895.66;7216881;40;21141;31
2023/06/17 23:32:52;;;;;;;5.90;5.30;;;;;;;19.99;45.69;98879.38;7149624;40;20255;31
2023/06/17 23:38:29;;;;;;;8.18;5.65;;;;;;;19.90;46.27;98883.50;7158351;40;20445;31
2023/06/17 23:44:01;;;;;;;7.60;5.60;;;;;;;19.43;47.70;98877.91;7207485;40;20257;31
2023/06/17 23:49:38;;;;;;;10.33;5.53;;;;;;;19.37;47.27;98882.34;7194902;40;20407;31
2023/06/17 23:55:13;;;;;;;5.60;5.10;;;;;;;19.59;46.72;98871.78;7199545;40;20258;31
